Time;durP1;ratioP1;P1;durP2;ratioP2;P2;SDS_P1;SDS_P2;PMS_P1;PMS_P2;Temp;Humidity;BMP_temperature;BMP_pressure;BME280_temperature;BME280_humidity;BME280_pressure;Samples;Min_cycle;Max_cycle;Signal;HPM_P1;HPM_P2
2022/04/21 00:02:09;;;;;;;0.50;0.50;;;9.90;99.90;;;;;;5002145;28;20702;-82
2022/04/21 00:04:34;;;;;;;0.30;0.30;;;9.80;99.90;;;;;;5015659;28;21406;-81
2022/04/21 00:07:00;;;;;;;0.20;0.20;;;9.80;99.90;;;;;;5015991;28;20210;-82
2022/04/21 00:09:26;;;;;;;0.40;0.40;;;9.80;99.90;;;;;;5001695;28;20207;-81
2022/04/21 00:11:52;;;;;;;0.50;0.50;;;9.70;99.90;;;;;;5017793;28;20193;-81
2022/04/21 00:14:17;;;;;;;3.07;0.40;;;9.70;99.90;;;;;;5007272;28;20200;-82
2022/04/21 00:16:43;;;;;;;1.83;0.53;;;9.60;99.90;;;;;;5002521;28;20202;-81
2022/04/21 00:19:08;;;;;;;0.37;0.27;;;9.60;99.90;;;;;;5002220;28;20225;-82
2022/04/21 00:24:18;;;;;;;0.30;0.30;;;9.60;99.90;;;;;;5002545;28;20679;-82
2022/04/21 00:26:43;;;;;;;0.60;0.60;;;9.50;99.90;;;;;;5001653;28;20198;-82
2022/04/21 00:29:09;;;;;;;0.20;0.20;;;9.50;99.90;;;;;;5001430;28;20207;-82
2022/04/21 00:31:35;;;;;;;0.17;0.17;;;9.50;99.90;;;;;;5000995;28;20187;-82
2022/04/21 00:34:00;;;;;;;0.10;0.10;;;9.60;99.90;;;;;;5007033;28;20203;-82
2022/04/21 00:36:26;;;;;;;0.70;0.70;;;9.50;99.90;;;;;;5000742;28;20194;-81
2022/04/21 00:38:51;;;;;;;0.10;0.10;;;9.50;99.90;;;;;;5000612;28;20218;-82
2022/04/21 00:41:17;;;;;;;0.40;0.40;;;9.50;99.90;;;;;;5001769;28;20186;-83
2022/04/21 00:43:42;;;;;;;0.20;0.20;;;9.50;99.90;;;;;;5001388;28;20664;-82
2022/04/21 00:46:17;;;;;;;0.73;0.73;;;9.50;99.90;;;;;;5001803;28;20194;-82
2022/04/21 00:48:43;;;;;;;0.10;0.10;;;9.50;99.90;;;;;;4999926;28;20275;-81
2022/04/21 00:51:09;;;;;;;0.30;0.30;;;9.50;99.90;;;;;;5014727;28;20195;-82
2022/04/21 00:53:34;;;;;;;0.37;0.37;;;9.50;99.90;;;;;;5017236;28;20206;-83
2022/04/21 00:56:01;;;;;;;0.90;0.40;;;9.40;99.90;;;;;;5006555;28;20743;-82
2022/04/21 00:58:28;;;;;;;0.40;0.40;;;9.40;99.90;;;;;;5014464;28;20293;-83
2022/04/21 01:00:55;;;;;;;0.10;0.10;;;9.30;99.90;;;;;;5001188;28;20234;-82
2022/04/21 01:03:20;;;;;;;0.20;0.20;;;9.30;99.90;;;;;;5001380;28;20179;-81
2022/04/21 01:05:47;;;;;;;1.10;0.47;;;9.20;99.90;;;;;;5007727;28;20259;-83
2022/04/21 01:08:13;;;;;;;0.30;0.30;;;9.20;99.90;;;;;;5006820;28;20726;-81
2022/04/21 01:10:41;;;;;;;0.53;0.37;;;9.20;99.90;;;;;;5006500;28;20187;-82
2022/04/21 01:13:09;;;;;;;1.07;0.80;;;9.10;99.90;;;;;;5006680;28;20183;-82
2022/04/21 01:15:35;;;;;;;0.30;0.30;;;9.10;99.90;;;;;;5006696;28;20207;-83
2022/04/21 01:18:01;;;;;;;0.33;0.30;;;9.20;99.90;;;;;;5000244;28;20197;-81
2022/04/21 01:20:27;;;;;;;0.20;0.20;;;9.10;99.90;;;;;;5005785;28;20552;-82
2022/04/21 01:22:54;;;;;;;0.50;0.40;;;9.10;99.90;;;;;;5006951;28;20187;-82
2022/04/21 01:25:20;;;;;;;0.93;0.50;;;9.10;99.90;;;;;;4999691;28;21303;-81
2022/04/21 01:27:48;;;;;;;0.10;0.10;;;9.10;99.90;;;;;;5016171;28;20226;-82
2022/04/21 01:30:14;;;;;;;1.30;0.43;;;9.10;99.90;;;;;;5005828;28;20763;-84
2022/04/21 01:32:49;;;;;;;0.60;0.60;;;9.20;99.90;;;;;;4999805;28;20194;-81
2022/04/21 01:35:15;;;;;;;0.20;0.20;;;9.20;99.90;;;;;;5001342;28;20319;-82
2022/04/21 01:43:11;;;;;;;0.20;0.17;;;9.10;99.90;;;;;;4999059;28;20206;-81
2022/04/21 01:45:36;;;;;;;0.20;0.20;;;9.10;99.90;;;;;;5000525;28;20193;-82
2022/04/21 01:48:03;;;;;;;0.60;0.60;;;9.10;99.90;;;;;;5000663;28;20208;-82
2022/04/21 01:50:29;;;;;;;0.30;0.30;;;9.10;99.90;;;;;;5000151;28;20205;-82
2022/04/21 01:52:58;;;;;;;0.13;0.13;;;9.10;99.90;;;;;;4999961;28;20226;-82
2022/04/21 01:55:23;;;;;;;0.13;0.13;;;9.10;99.90;;;;;;4999951;28;20221;-82
2022/04/21 01:57:49;;;;;;;0.30;0.30;;;9.10;99.90;;;;;;5001348;28;20187;-82
2022/04/21 02:00:15;;;;;;;0.50;0.50;;;9.10;99.90;;;;;;5016557;28;20193;-81
2022/04/21 02:02:40;;;;;;;1.50;0.40;;;9.00;99.90;;;;;;4997623;28;20225;-82
2022/04/21 02:05:07;;;;;;;0.40;0.40;;;9.00;99.90;;;;;;5014912;28;20662;-82
2022/04/21 02:07:32;;;;;;;0.10;0.10;;;9.00;99.90;;;;;;4998919;28;20329;-82
2022/04/21 02:09:58;;;;;;;0.20;0.20;;;9.00;99.90;;;;;;5011244;28;20316;-81
2022/04/21 02:12:24;;;;;;;0.13;0.13;;;9.00;99.90;;;;;;5016040;28;20193;-82
2022/04/21 02:14:51;;;;;;;0.10;0.10;;;9.00;99.90;;;;;;4999511;28;20226;-82
2022/04/21 02:17:17;;;;;;;0.20;0.20;;;9.00;99.90;;;;;;5005348;28;20186;-82
2022/04/21 02:19:42;;;;;;;0.33;0.33;;;9.00;99.90;;;;;;4998227;28;20271;-82
2022/04/21 02:22:08;;;;;;;0.53;0.33;;;8.90;99.90;;;;;;4998243;28;20230;-82
2022/04/21 02:24:33;;;;;;;0.10;0.10;;;8.90;99.90;;;;;;4999956;28;20350;-82
2022/04/21 02:26:59;;;;;;;0.57;0.27;;;8.90;99.90;;;;;;5000715;28;20268;-82
2022/04/21 02:29:24;;;;;;;0.10;0.10;;;8.90;99.90;;;;;;5006011;28;20226;-81
2022/04/21 02:31:50;;;;;;;0.17;0.17;;;8.90;99.90;;;;;;5006655;28;20196;-81
2022/04/21 02:34:16;;;;;;;0.20;0.20;;;8.90;99.90;;;;;;5005239;28;20213;-82
2022/04/21 02:36:41;;;;;;;0.33;0.33;;;8.90;99.90;;;;;;5009001;28;20697;-82
2022/04/21 02:39:07;;;;;;;0.10;0.10;;;8.90;99.90;;;;;;5009404;28;20272;-82
2022/04/21 02:41:32;;;;;;;0.30;0.30;;;8.90;99.90;;;;;;5009716;28;20194;-83
2022/04/21 02:43:59;;;;;;;0.20;0.20;;;8.90;99.90;;;;;;5003822;28;20199;-82
2022/04/21 02:46:28;;;;;;;0.87;0.50;;;8.90;99.90;;;;;;5002470;28;20178;-82
2022/04/21 02:49:00;;;;;;;1.80;0.30;;;8.80;99.90;;;;;;5009304;28;20227;-82
2022/04/21 02:51:25;;;;;;;0.10;0.10;;;8.80;99.90;;;;;;5000483;28;20672;-82
2022/04/21 02:59:20;;;;;;;0.83;0.20;;;8.80;99.90;;;;;;5004826;28;20260;-81
2022/04/21 03:01:45;;;;;;;0.20;0.20;;;8.70;99.90;;;;;;5009567;28;20183;-82
2022/04/21 03:04:11;;;;;;;0.27;0.20;;;8.70;99.90;;;;;;5001822;28;20187;-83
2022/04/21 03:06:36;;;;;;;0.10;0.10;;;8.70;99.90;;;;;;5003820;28;20274;-82
2022/04/21 03:09:02;;;;;;;0.33;0.33;;;8.60;99.90;;;;;;5010057;28;21009;-82
2022/04/21 03:11:27;;;;;;;0.23;0.23;;;8.60;99.90;;;;;;5003507;28;20182;-82
2022/04/21 03:13:54;;;;;;;0.30;0.30;;;8.60;99.90;;;;;;5009418;28;21154;-83
2022/04/21 03:16:19;;;;;;;0.30;0.30;;;8.60;99.90;;;;;;5003630;28;20212;-82
2022/04/21 03:18:45;;;;;;;0.10;0.10;;;8.50;99.90;;;;;;5009873;28;20293;-82
2022/04/21 03:26:39;;;;;;;0.30;0.30;;;8.40;99.90;;;;;;5002929;28;20197;-82
2022/04/21 03:29:04;;;;;;;1.03;0.20;;;8.40;99.90;;;;;;5008736;28;20578;-83
2022/04/21 03:31:30;;;;;;;0.20;0.20;;;8.40;99.90;;;;;;5002277;28;21076;-82
2022/04/21 03:33:55;;;;;;;0.30;0.30;;;8.40;99.90;;;;;;5015668;28;20429;-82
2022/04/21 03:36:21;;;;;;;0.30;0.30;;;8.30;99.90;;;;;;5009021;28;20190;-83
2022/04/21 03:38:47;;;;;;;0.13;0.13;;;8.30;99.90;;;;;;5009507;28;20213;-83
2022/04/21 03:41:12;;;;;;;0.30;0.30;;;8.20;99.90;;;;;;5002186;28;20220;-82
2022/04/21 03:43:38;;;;;;;0.10;0.10;;;8.20;99.90;;;;;;5000248;28;20663;-82
2022/04/21 03:46:03;;;;;;;0.10;0.10;;;8.20;99.90;;;;;;5007957;28;20186;-81
2022/04/21 03:48:29;;;;;;;0.20;0.20;;;8.10;99.90;;;;;;5007796;28;20648;-83
2022/04/21 03:50:55;;;;;;;0.20;0.20;;;8.10;99.90;;;;;;5008334;28;20197;-82
2022/04/21 03:53:21;;;;;;;0.50;0.50;;;8.10;99.90;;;;;;5008095;28;20183;-82
2022/04/21 03:55:47;;;;;;;0.20;0.20;;;8.00;99.90;;;;;;5009072;28;20185;-83
2022/04/21 03:58:12;;;;;;;0.40;0.40;;;7.90;99.90;;;;;;5008005;28;20214;-81
2022/04/21 04:00:38;;;;;;;0.10;0.10;;;7.90;99.90;;;;;;5003562;28;20180;-82
2022/04/21 04:03:03;;;;;;;0.20;0.20;;;7.80;99.90;;;;;;5008161;28;20604;-83
2022/04/21 04:05:29;;;;;;;0.20;0.20;;;7.90;99.90;;;;;;5001844;28;20185;-82
2022/04/21 04:10:52;;;;;;;0.10;0.10;;;8.10;99.90;;;;;;4995794;28;20227;-83
2022/04/21 04:13:22;;;;;;;3.60;0.50;;;8.20;99.90;;;;;;5002070;28;20185;-82
2022/04/21 04:15:49;;;;;;;0.10;0.10;;;8.30;99.90;;;;;;5000517;28;20194;-82
2022/04/21 04:18:19;;;;;;;0.10;0.10;;;8.40;99.90;;;;;;5008689;28;20637;-83
2022/04/21 04:20:46;;;;;;;0.40;0.37;;;8.40;99.90;;;;;;5008605;28;20197;-82
2022/04/21 04:23:17;;;;;;;0.10;0.10;;;8.50;99.90;;;;;;5007812;28;20181;-81
2022/04/21 04:25:42;;;;;;;0.47;0.47;;;8.60;99.90;;;;;;5007087;28;20570;-82
2022/04/21 04:28:08;;;;;;;0.20;0.20;;;8.50;99.90;;;;;;5001288;28;20299;-82
2022/04/21 04:30:34;;;;;;;0.23;0.23;;;8.50;99.90;;;;;;5019590;28;20285;-83
2022/04/21 04:32:59;;;;;;;0.10;0.10;;;8.40;99.90;;;;;;5016063;28;20182;-82
2022/04/21 04:35:25;;;;;;;0.40;0.40;;;8.30;99.90;;;;;;5007801;28;20213;-82
2022/04/21 04:37:52;;;;;;;0.20;0.20;;;8.30;99.90;;;;;;5002531;28;20254;-82
2022/04/21 04:40:18;;;;;;;0.10;0.10;;;8.30;99.90;;;;;;5001944;28;20182;-82
2022/04/21 04:42:44;;;;;;;0.33;0.33;;;8.30;99.90;;;;;;5017125;28;20276;-82
2022/04/21 04:47:54;;;;;;;0.53;0.17;;;8.00;99.90;;;;;;5002302;28;20917;-82
2022/04/21 04:50:20;;;;;;;0.10;0.10;;;8.10;99.90;;;;;;5002223;28;20182;-82
2022/04/21 04:52:47;;;;;;;0.10;0.10;;;8.20;99.90;;;;;;5001021;28;20202;-82
2022/04/21 04:55:12;;;;;;;0.20;0.20;;;8.30;99.90;;;;;;5000930;28;20236;-82
2022/04/21 04:57:40;;;;;;;0.20;0.20;;;8.40;99.90;;;;;;5007221;28;20202;-81
2022/04/21 05:00:08;;;;;;;0.30;0.30;;;8.40;99.90;;;;;;5006353;28;20312;-82
2022/04/21 05:02:34;;;;;;;0.67;0.50;;;8.20;99.90;;;;;;5001054;28;20197;-82
2022/04/21 05:05:00;;;;;;;0.50;0.50;;;8.20;99.90;;;;;;5001810;28;20190;-81
2022/04/21 05:07:25;;;;;;;0.30;0.27;;;8.10;99.90;;;;;;4999445;28;20227;-82
2022/04/21 05:09:51;;;;;;;0.20;0.20;;;8.20;99.90;;;;;;5006688;28;20208;-81
2022/04/21 05:12:17;;;;;;;0.27;0.27;;;8.30;99.90;;;;;;4998970;28;20195;-82
2022/04/21 05:14:43;;;;;;;0.77;0.77;;;8.50;99.90;;;;;;5000021;28;20291;-81
2022/04/21 05:17:09;;;;;;;0.20;0.20;;;8.60;99.90;;;;;;4999242;28;21961;-80
2022/04/21 05:19:34;;;;;;;0.20;0.20;;;8.80;99.90;;;;;;5016441;28;20603;-80
2022/04/21 05:22:03;;;;;;;0.13;0.13;;;8.70;99.90;;;;;;5004259;28;20656;-80
2022/04/21 05:24:32;;;;;;;0.10;0.10;;;8.70;99.90;;;;;;4999178;28;20191;-80
2022/04/21 05:26:59;;;;;;;0.10;0.10;;;8.70;99.90;;;;;;5006307;28;20186;-80
2022/04/21 05:32:09;;;;;;;0.27;0.27;;;8.80;99.90;;;;;;5002940;28;20739;-80
2022/04/21 05:34:35;;;;;;;0.23;0.23;;;9.10;99.90;;;;;;5003052;28;20238;-79
2022/04/21 05:37:02;;;;;;;0.30;0.30;;;9.30;99.90;;;;;;4999263;28;20225;-80
2022/04/21 05:39:29;;;;;;;0.40;0.40;;;9.50;99.90;;;;;;5000756;28;20210;-80
2022/04/21 05:41:57;;;;;;;0.20;0.20;;;9.50;99.90;;;;;;4999386;28;20237;-79
2022/04/21 05:44:23;;;;;;;0.20;0.20;;;9.60;99.90;;;;;;4999252;28;20222;-79
2022/04/21 05:46:49;;;;;;;0.23;0.23;;;9.70;99.90;;;;;;5005554;28;20191;-79
2022/04/21 05:49:16;;;;;;;0.13;0.13;;;9.70;99.90;;;;;;5000586;28;20215;-79
2022/04/21 05:51:42;;;;;;;0.33;0.33;;;9.70;99.90;;;;;;4998365;28;20774;-79
2022/04/21 05:54:08;;;;;;;0.30;0.30;;;9.70;99.90;;;;;;5012779;28;20230;-79
2022/04/21 05:56:35;;;;;;;0.10;0.10;;;9.70;99.90;;;;;;4998929;28;20185;-79
2022/04/21 05:59:00;;;;;;;1.60;0.40;;;10.00;99.90;;;;;;5013091;28;20215;-79
2022/04/21 06:01:26;;;;;;;0.20;0.20;;;10.20;99.90;;;;;;4998944;28;20198;-79
2022/04/21 06:03:52;;;;;;;1.50;0.40;;;10.40;99.90;;;;;;5005666;28;20671;-79
2022/04/21 06:06:18;;;;;;;0.10;0.10;;;10.60;99.90;;;;;;4997837;28;20203;-79
2022/04/21 06:08:43;;;;;;;0.20;0.20;;;10.90;99.90;;;;;;5000538;28;20288;-79
2022/04/21 06:11:09;;;;;;;0.40;0.40;;;10.90;99.90;;;;;;5003345;28;20199;-79
2022/04/21 06:13:36;;;;;;;1.40;0.60;;;10.90;99.90;;;;;;4999594;28;20211;-79
2022/04/21 06:16:01;;;;;;;0.20;0.20;;;10.90;99.90;;;;;;5016077;28;20191;-79
2022/04/21 06:18:27;;;;;;;0.17;0.17;;;11.20;99.90;;;;;;5004617;28;20221;-79
2022/04/21 06:20:53;;;;;;;0.67;0.47;;;11.40;99.90;;;;;;4998709;28;20197;-79
2022/04/21 06:23:20;;;;;;;0.37;0.37;;;11.50;99.90;;;;;;5003884;28;20198;-81
2022/04/21 06:25:47;;;;;;;0.67;0.43;;;11.50;99.90;;;;;;5002424;28;20249;-82
2022/04/21 06:28:13;;;;;;;0.30;0.30;;;11.80;99.90;;;;;;5002019;28;20236;-82
2022/04/21 06:30:39;;;;;;;0.27;0.23;;;12.10;99.90;;;;;;5000350;28;20239;-80
2022/04/21 06:33:05;;;;;;;0.30;0.30;;;12.40;99.90;;;;;;5002050;28;20322;-79
2022/04/21 06:35:31;;;;;;;0.47;0.47;;;12.30;99.90;;;;;;4995879;28;20322;-79
2022/04/21 06:37:57;;;;;;;0.60;0.53;;;12.30;99.90;;;;;;5002871;28;20286;-79
2022/04/21 06:40:23;;;;;;;1.00;0.93;;;12.20;99.90;;;;;;4998052;28;20198;-79
2022/04/21 06:42:49;;;;;;;0.20;0.20;;;12.10;99.90;;;;;;4996828;28;20186;-83
2022/04/21 06:48:02;;;;;;;0.20;0.20;;;12.10;99.90;;;;;;4994892;28;20246;-81
2022/04/21 06:50:33;;;;;;;0.20;0.20;;;12.60;99.90;;;;;;4999523;28;20213;-81
2022/04/21 06:53:06;;;;;;;0.60;0.30;;;12.70;99.90;;;;;;5004344;28;20200;-81
2022/04/21 06:55:32;;;;;;;0.20;0.20;;;12.60;99.90;;;;;;4999603;28;20212;-81
2022/04/21 06:57:58;;;;;;;0.30;0.30;;;12.90;99.90;;;;;;4999158;28;20192;-82
2022/04/21 07:00:26;;;;;;;2.13;0.83;;;12.50;99.90;;;;;;5004034;28;20196;-80
2022/04/21 07:02:56;;;;;;;0.50;0.50;;;12.70;99.90;;;;;;4997298;28;20186;-80
2022/04/21 07:05:23;;;;;;;0.40;0.40;;;13.20;99.90;;;;;;4997506;28;20236;-80
2022/04/21 07:07:49;;;;;;;0.40;0.40;;;13.20;99.90;;;;;;5010991;28;20255;-80
2022/04/21 07:10:16;;;;;;;0.10;0.10;;;13.20;99.90;;;;;;4998307;28;20193;-80
2022/04/21 07:12:42;;;;;;;0.37;0.37;;;12.80;99.90;;;;;;5011907;28;20187;-81
2022/04/21 07:15:09;;;;;;;0.53;0.40;;;13.00;99.90;;;;;;5003261;28;20212;-80
2022/04/21 07:17:36;;;;;;;0.20;0.20;;;12.50;99.90;;;;;;4995375;28;20195;-80
2022/04/21 07:20:04;;;;;;;0.20;0.20;;;13.10;99.90;;;;;;5004515;28;20201;-81
2022/04/21 07:22:30;;;;;;;1.10;1.10;;;12.80;99.90;;;;;;5000532;28;20216;-82
2022/04/21 07:24:57;;;;;;;0.40;0.40;;;13.00;99.90;;;;;;5005410;28;20251;-81
2022/04/21 07:27:23;;;;;;;3.60;0.53;;;13.10;99.90;;;;;;5007832;28;20629;-81
2022/04/21 07:29:49;;;;;;;0.30;0.30;;;13.40;99.90;;;;;;5001550;28;20213;-81
2022/04/21 07:32:15;;;;;;;0.10;0.10;;;13.40;99.90;;;;;;5006879;28;20199;-80
2022/04/21 07:34:41;;;;;;;0.27;0.27;;;13.50;99.90;;;;;;5001067;28;20331;-81
2022/04/21 07:37:08;;;;;;;0.20;0.20;;;13.30;99.90;;;;;;5001149;28;20188;-80
2022/04/21 07:39:35;;;;;;;0.30;0.30;;;12.50;99.90;;;;;;4999708;28;20202;-80
2022/04/21 07:42:00;;;;;;;0.20;0.20;;;12.70;99.90;;;;;;5017102;28;20645;-81
2022/04/21 07:44:30;;;;;;;0.40;0.40;;;12.50;99.90;;;;;;5012962;28;20194;-80
2022/04/21 07:46:55;;;;;;;0.10;0.10;;;13.00;99.90;;;;;;5007019;28;20265;-81
2022/04/21 07:54:50;;;;;;;0.23;0.23;;;14.20;99.90;;;;;;4999768;28;20214;-81
2022/04/21 07:57:15;;;;;;;0.50;0.50;;;13.70;99.90;;;;;;4998802;28;20241;-81
2022/04/21 07:59:42;;;;;;;0.30;0.30;;;13.70;99.90;;;;;;5014234;28;20211;-80
2022/04/21 08:02:08;;;;;;;0.20;0.13;;;13.30;99.90;;;;;;5012819;28;20211;-81
2022/04/21 08:04:34;;;;;;;0.30;0.30;;;13.50;99.90;;;;;;5004049;28;20911;-81
2022/04/21 08:07:00;;;;;;;0.87;0.87;;;13.50;99.90;;;;;;4998718;28;20210;-81
2022/04/21 08:09:26;;;;;;;0.60;0.60;;;13.30;99.90;;;;;;4998105;28;20218;-80
2022/04/21 08:11:51;;;;;;;0.67;0.67;;;13.50;99.90;;;;;;4999905;28;20245;-80
2022/04/21 08:14:17;;;;;;;0.20;0.20;;;13.70;99.90;;;;;;4998024;28;20675;-80
2022/04/21 08:16:43;;;;;;;0.73;0.40;;;14.30;99.90;;;;;;5000689;28;20198;-81
2022/04/21 08:19:09;;;;;;;0.47;0.40;;;13.50;99.90;;;;;;4999402;28;20207;-81
2022/04/21 08:21:36;;;;;;;0.57;0.57;;;13.60;99.90;;;;;;5000504;28;20216;-81
2022/04/21 08:32:33;;;;;;;0.30;0.30;;;13.50;99.90;;;;;;4998068;28;20725;-81
2022/04/21 08:32:36;;;;;;;0.60;0.40;;;13.90;99.90;;;;;;4999905;28;20677;-82
2022/04/21 08:35:03;;;;;;;0.60;0.60;;;13.70;99.90;;;;;;5015708;28;20208;-80
2022/04/21 08:37:33;;;;;;;0.60;0.30;;;13.50;99.90;;;;;;5005263;28;20655;-80
2022/04/21 08:39:58;;;;;;;0.53;0.33;;;13.80;99.90;;;;;;4999716;28;20233;-80
2022/04/21 08:42:26;;;;;;;0.27;0.27;;;14.10;99.90;;;;;;4999678;28;20219;-80
2022/04/21 08:44:53;;;;;;;0.30;0.30;;;14.60;99.90;;;;;;5004227;28;20243;-80
2022/04/21 08:47:19;;;;;;;0.77;0.70;;;14.90;99.90;;;;;;5000148;28;20194;-80
2022/04/21 08:49:48;;;;;;;0.93;0.37;;;14.40;99.90;;;;;;4998568;28;20234;-85
2022/04/21 08:52:16;;;;;;;0.77;0.77;;;14.00;99.90;;;;;;5004774;28;20205;-84
2022/04/21 08:54:46;;;;;;;0.33;0.33;;;13.90;99.90;;;;;;4998643;28;20221;-85
2022/04/21 08:57:12;;;;;;;0.20;0.20;;;13.90;99.90;;;;;;5000903;28;20189;-81
2022/04/21 08:59:38;;;;;;;1.83;0.60;;;14.50;99.90;;;;;;4999824;28;20244;-81
2022/04/21 09:02:03;;;;;;;0.40;0.33;;;14.60;99.90;;;;;;5004257;28;20185;-80
2022/04/21 09:04:30;;;;;;;1.03;0.43;;;15.10;99.90;;;;;;4999112;28;20598;-81
2022/04/21 09:06:56;;;;;;;0.20;0.20;;;15.30;99.90;;;;;;4998885;28;21315;-81
2022/04/21 09:09:22;;;;;;;0.20;0.20;;;15.30;99.90;;;;;;5013209;28;20210;-80
2022/04/21 09:11:53;;;;;;;0.67;0.67;;;15.40;99.90;;;;;;5005976;28;20345;-80
2022/04/21 09:14:20;;;;;;;0.83;0.60;;;15.10;99.90;;;;;;4996933;28;20203;-80
2022/04/21 09:16:47;;;;;;;0.40;0.37;;;15.10;99.90;;;;;;4998910;28;20191;-80
2022/04/21 09:19:13;;;;;;;0.30;0.30;;;15.00;99.90;;;;;;5005171;28;20310;-80
2022/04/21 09:21:40;;;;;;;0.80;0.80;;;14.90;99.90;;;;;;5013390;28;20264;-80
2022/04/21 09:24:26;;;;;;;0.43;0.43;;;15.20;99.90;;;;;;4998009;28;20190;-81
2022/04/21 09:26:53;;;;;;;0.30;0.30;;;15.60;99.90;;;;;;4997986;28;20213;-80
2022/04/21 09:29:28;;;;;;;0.53;0.53;;;15.40;99.90;;;;;;5003890;28;20210;-80
2022/04/21 09:32:02;;;;;;;0.20;0.20;;;15.60;99.90;;;;;;4998744;28;20186;-81
2022/04/21 09:34:28;;;;;;;0.40;0.40;;;15.80;99.90;;;;;;4999081;28;20218;-80
2022/04/21 09:36:58;;;;;;;1.27;0.77;;;16.00;99.90;;;;;;4997940;28;20672;-80
2022/04/21 09:39:24;;;;;;;0.30;0.27;;;15.20;99.90;;;;;;4999167;28;20213;-81
2022/04/21 09:41:56;;;;;;;0.33;0.30;;;15.30;99.90;;;;;;5013672;28;20551;-80
2022/04/21 09:47:30;;;;;;;0.40;0.40;;;15.60;99.90;;;;;;4998695;28;20186;-80
2022/04/21 09:49:57;;;;;;;0.57;0.47;;;15.60;99.90;;;;;;4997671;28;20198;-80
2022/04/21 09:52:31;;;;;;;0.27;0.27;;;16.00;99.90;;;;;;4998946;28;20187;-80
2022/04/21 09:54:56;;;;;;;0.60;0.60;;;16.60;99.90;;;;;;5011057;28;20216;-80
2022/04/21 09:57:32;;;;;;;0.30;0.30;;;17.20;99.90;;;;;;5001149;28;20194;-80
2022/04/21 09:59:58;;;;;;;0.47;0.30;;;17.60;99.90;;;;;;4999402;28;20273;-81
2022/04/21 10:02:26;;;;;;;0.20;0.20;;;18.10;99.90;;;;;;4999174;28;20277;-80
2022/04/21 10:04:52;;;;;;;8.57;0.50;;;18.40;99.90;;;;;;4998543;28;20182;-80
2022/04/21 10:07:18;;;;;;;0.67;0.53;;;18.80;99.90;;;;;;5013175;28;20272;-80
2022/04/21 10:09:45;;;;;;;2.40;0.40;;;18.90;99.90;;;;;;4998658;28;20210;-80
2022/04/21 10:12:11;;;;;;;0.40;0.40;;;18.60;99.90;;;;;;5003499;28;20669;-81
2022/04/21 10:14:36;;;;;;;0.50;0.50;;;18.60;99.90;;;;;;5003910;28;20230;-81
2022/04/21 10:17:02;;;;;;;0.37;0.37;;;17.60;99.90;;;;;;4999763;28;20179;-80
2022/04/21 10:19:28;;;;;;;0.40;0.40;;;17.80;99.90;;;;;;4997373;28;20201;-80
2022/04/21 10:21:56;;;;;;;0.50;0.33;;;17.70;99.90;;;;;;4997807;28;20192;-80
2022/04/21 10:24:23;;;;;;;1.50;0.97;;;17.10;99.90;;;;;;4998723;28;20191;-80
2022/04/21 10:26:49;;;;;;;0.50;0.50;;;16.50;99.90;;;;;;4997494;28;20266;-80
2022/04/21 10:29:15;;;;;;;0.20;0.20;;;15.80;99.90;;;;;;5003892;28;20293;-80
2022/04/21 10:31:59;;;;;;;0.90;0.37;;;15.70;99.90;;;;;;5014433;28;20183;-80
2022/04/21 10:34:43;;;;;;;0.30;0.30;;;15.40;99.90;;;;;;5018087;28;20590;-82
2022/04/21 10:37:18;;;;;;;0.50;0.30;;;16.10;99.90;;;;;;5007958;28;20666;-82
2022/04/21 10:39:58;;;;;;;0.93;0.60;;;16.10;99.90;;;;;;5002466;28;20234;-82
2022/04/21 10:42:24;;;;;;;0.20;0.20;;;15.60;99.90;;;;;;5015070;28;21014;-82
2022/04/21 10:44:54;;;;;;;0.10;0.10;;;16.00;99.90;;;;;;5017643;28;20194;-82
2022/04/21 10:47:31;;;;;;;0.20;0.20;;;15.80;99.90;;;;;;5007794;28;20200;-81
2022/04/21 10:49:59;;;;;;;0.30;0.30;;;15.70;99.90;;;;;;4998405;28;20640;-80
2022/04/21 10:57:53;;;;;;;0.53;0.40;;;15.50;99.90;;;;;;5001439;28;20199;-80
2022/04/21 11:00:27;;;;;;;0.53;0.50;;;15.70;99.90;;;;;;5015007;28;20187;-80
2022/04/21 11:03:02;;;;;;;0.47;0.47;;;16.20;99.90;;;;;;4999889;28;20241;-80
2022/04/21 11:05:33;;;;;;;0.40;0.40;;;15.90;99.90;;;;;;5015788;28;20214;-80
2022/04/21 11:08:03;;;;;;;0.27;0.27;;;16.40;99.90;;;;;;5014303;28;20202;-80
2022/04/21 11:10:38;;;;;;;0.30;0.30;;;16.20;99.90;;;;;;5007154;28;20194;-80
2022/04/21 11:13:08;;;;;;;1.10;0.60;;;16.20;99.90;;;;;;4999665;28;20195;-80
2022/04/21 11:15:50;;;;;;;0.87;0.83;;;16.10;99.90;;;;;;4999477;28;20216;-80
2022/04/21 11:18:19;;;;;;;0.30;0.30;;;16.00;99.90;;;;;;5006454;28;20542;-80
2022/04/21 11:20:47;;;;;;;0.30;0.30;;;16.10;99.90;;;;;;4999415;28;20183;-80
2022/04/21 11:23:24;;;;;;;0.30;0.30;;;15.70;99.90;;;;;;5000939;28;20179;-81
2022/04/21 11:26:08;;;;;;;0.30;0.30;;;15.90;99.90;;;;;;5000385;28;20191;-80
2022/04/21 11:28:33;;;;;;;0.53;0.43;;;16.10;99.90;;;;;;5001494;28;20607;-80
2022/04/21 11:31:01;;;;;;;0.30;0.30;;;16.10;99.90;;;;;;5006162;28;20194;-80
2022/04/21 11:33:27;;;;;;;0.27;0.27;;;15.90;99.90;;;;;;5000168;28;20201;-81
2022/04/21 11:36:04;;;;;;;0.63;0.57;;;15.60;99.90;;;;;;5010532;28;20187;-81
2022/04/21 11:38:32;;;;;;;0.73;0.73;;;16.00;99.90;;;;;;4998787;28;20199;-80
2022/04/21 11:41:04;;;;;;;0.40;0.40;;;16.80;99.90;;;;;;5015809;28;20187;-80
2022/04/21 11:43:30;;;;;;;0.47;0.47;;;17.20;99.90;;;;;;5000236;28;20184;-81
2022/04/21 11:46:00;;;;;;;0.27;0.27;;;17.30;99.90;;;;;;5014358;28;20198;-81
2022/04/21 11:48:30;;;;;;;0.53;0.40;;;16.70;99.90;;;;;;5000841;28;20560;-81
2022/04/21 11:50:56;;;;;;;0.20;0.20;;;16.50;99.90;;;;;;5001433;28;20274;-81
2022/04/21 11:53:22;;;;;;;0.30;0.30;;;16.60;99.90;;;;;;4999464;28;20180;-80
2022/04/21 11:55:49;;;;;;;0.20;0.20;;;16.90;99.90;;;;;;5007609;28;20217;-81
2022/04/21 11:58:31;;;;;;;0.40;0.40;;;17.00;99.90;;;;;;4999507;28;20650;-80
2022/04/21 12:06:58;;;;;;;0.20;0.20;;;16.50;99.90;;;;;;4999871;28;20244;-81
2022/04/21 12:09:26;;;;;;;0.30;0.30;;;17.20;99.90;;;;;;4998653;28;20207;-80
2022/04/21 12:11:57;;;;;;;0.43;0.43;;;17.00;99.90;;;;;;5010418;28;20192;-80
2022/04/21 12:14:23;;;;;;;0.27;0.27;;;16.70;99.90;;;;;;4999075;28;21006;-80
2022/04/21 12:16:57;;;;;;;0.30;0.30;;;16.70;99.90;;;;;;4999433;28;20184;-81
2022/04/21 12:19:28;;;;;;;0.63;0.30;;;17.20;99.90;;;;;;5000102;28;20285;-80
2022/04/21 12:22:21;;;;;;;0.20;0.20;;;16.70;99.90;;;;;;4999592;28;20182;-80
2022/04/21 12:24:54;;;;;;;0.93;0.43;;;16.40;99.90;;;;;;5000684;28;20253;-80
2022/04/21 12:27:26;;;;;;;0.50;0.50;;;16.60;99.90;;;;;;5005753;28;20195;-80
2022/04/21 12:30:04;;;;;;;0.30;0.30;;;16.80;99.90;;;;;;4999681;28;20218;-80
2022/04/21 12:32:35;;;;;;;0.40;0.40;;;16.80;99.90;;;;;;5005441;28;20269;-80
2022/04/21 12:35:06;;;;;;;2.17;1.00;;;16.30;99.90;;;;;;5000595;28;20203;-81
2022/04/21 12:37:44;;;;;;;0.20;0.20;;;16.80;99.90;;;;;;5005288;28;20183;-81
2022/04/21 12:40:13;;;;;;;0.77;0.50;;;16.90;99.90;;;;;;4997841;28;20209;-81
2022/04/21 12:42:40;;;;;;;2.00;0.70;;;17.10;99.90;;;;;;4997770;28;20191;-81
2022/04/21 12:45:09;;;;;;;0.30;0.30;;;17.70;99.90;;;;;;5013243;28;20179;-80
2022/04/21 12:47:47;;;;;;;0.20;0.20;;;17.30;99.90;;;;;;4998670;28;20722;-81
2022/04/21 12:50:24;;;;;;;0.50;0.50;;;16.70;99.90;;;;;;4998386;28;20241;-80
2022/04/21 12:52:57;;;;;;;0.93;0.57;;;16.80;99.90;;;;;;4996523;28;20191;-81
2022/04/21 12:55:26;;;;;;;0.23;0.23;;;17.20;99.90;;;;;;5000161;28;20207;-80
2022/04/21 12:58:02;;;;;;;0.53;0.53;;;17.40;99.90;;;;;;4999503;28;20184;-80
2022/04/21 13:00:28;;;;;;;0.40;0.40;;;17.30;99.90;;;;;;5013100;28;20213;-81
2022/04/21 13:02:54;;;;;;;0.60;0.60;;;17.30;99.90;;;;;;4996367;28;20200;-81
2022/04/21 13:05:19;;;;;;;0.37;0.37;;;17.20;99.90;;;;;;5013767;28;20195;-80
2022/04/21 13:07:45;;;;;;;0.20;0.20;;;17.60;99.90;;;;;;5012332;28;21105;-81
2022/04/21 13:10:10;;;;;;;0.40;0.40;;;18.00;99.90;;;;;;4998138;28;20223;-81
2022/04/21 13:12:36;;;;;;;0.47;0.47;;;17.70;99.90;;;;;;5004081;28;20195;-80
2022/04/21 13:15:04;;;;;;;0.60;0.57;;;17.70;99.90;;;;;;5000222;28;20692;-80
2022/04/21 13:17:30;;;;;;;0.30;0.30;;;17.50;99.90;;;;;;5004198;28;20190;-80
2022/04/21 13:19:55;;;;;;;0.70;0.70;;;17.50;99.90;;;;;;4998138;28;20203;-81
2022/04/21 13:22:21;;;;;;;0.60;0.60;;;17.30;99.90;;;;;;5012015;28;20180;-80
2022/04/21 13:24:46;;;;;;;0.33;0.33;;;17.10;99.90;;;;;;4999813;28;20741;-80
2022/04/21 13:27:15;;;;;;;0.50;0.50;;;17.50;99.90;;;;;;5003412;28;20188;-80
2022/04/21 13:29:41;;;;;;;0.20;0.20;;;17.50;99.90;;;;;;5005135;28;20257;-80
2022/04/21 13:34:52;;;;;;;1.00;0.50;;;17.70;99.90;;;;;;4999237;28;20233;-80
2022/04/21 13:37:18;;;;;;;2.40;0.90;;;18.20;99.90;;;;;;4997884;28;20176;-80
2022/04/21 13:39:43;;;;;;;0.30;0.30;;;18.30;99.90;;;;;;5012716;28;20837;-80
2022/04/21 13:42:09;;;;;;;0.93;0.70;;;18.10;99.90;;;;;;4998986;28;20219;-81
2022/04/21 13:44:35;;;;;;;0.30;0.30;;;17.80;99.90;;;;;;4996432;28;20202;-80
2022/04/21 13:47:00;;;;;;;0.57;0.47;;;17.70;99.90;;;;;;5013920;28;20241;-80
2022/04/21 13:49:26;;;;;;;0.30;0.30;;;17.50;99.90;;;;;;5011369;28;20244;-80
2022/04/21 13:51:51;;;;;;;0.20;0.20;;;17.30;99.90;;;;;;4999011;28;20222;-80